createdAt,value
2022-11-28T00:04:43.842Z,-1.78
2022-11-28T00:09:47.355Z,-1.78
2022-11-28T00:14:50.511Z,-1.80
2022-11-28T00:19:53.624Z,-1.85
2022-11-28T00:24:56.880Z,-1.88
2022-11-28T00:30:00.026Z,-1.87
2022-11-28T00:35:03.237Z,-1.92
2022-11-28T00:40:10.240Z,-2.05
2022-11-28T00:45:13.308Z,-2.04
2022-11-28T00:50:16.632Z,-2.00
2022-11-28T00:55:19.735Z,-2.02
2022-11-28T01:00:24.103Z,-2.01
2022-11-28T01:05:27.269Z,-2.04
2022-11-28T01:10:30.603Z,-1.88
2022-11-28T01:15:35.600Z,-1.95
2022-11-28T01:20:39.427Z,-1.88
2022-11-28T01:25:42.968Z,-1.97
2022-11-28T01:30:46.053Z,-2.09
2022-11-28T01:35:57.903Z,-2.06
2022-11-28T01:41:01.393Z,-1.92
2022-11-28T01:46:05.887Z,-1.91
2022-11-28T01:51:10.743Z,-1.97
2022-11-28T01:56:22.186Z,-1.99
2022-11-28T02:01:26.175Z,-2.01
2022-11-28T02:06:29.570Z,-1.88
2022-11-28T02:11:58.552Z,-1.86
2022-11-28T02:17:24.678Z,-1.92
2022-11-28T02:22:43.452Z,-1.98
2022-11-28T02:28:24.216Z,-2.05
2022-11-28T02:33:59.214Z,-2.13
2022-11-28T02:39:05.088Z,-2.19
2022-11-28T02:44:25.403Z,-2.16
2022-11-28T02:49:41.858Z,-2.24
2022-11-28T02:54:46.924Z,-2.37
2022-11-28T02:59:54.677Z,-2.40
2022-11-28T03:05:24.595Z,-2.23
2022-11-28T03:11:05.131Z,-2.25
2022-11-28T03:16:49.888Z,-2.33
2022-11-28T03:22:19.943Z,-2.30
2022-11-28T03:27:55.776Z,-2.31
2022-11-28T03:33:04.811Z,-2.29
2022-11-28T03:38:13.546Z,-2.27
2022-11-28T03:43:22.346Z,-2.36
2022-11-28T03:48:33.133Z,-2.38
2022-11-28T03:53:54.854Z,-2.40
2022-11-28T03:59:10.387Z,-2.52
2022-11-28T04:04:32.121Z,-2.56
2022-11-28T04:09:45.913Z,-2.55
2022-11-28T04:14:56.928Z,-2.53
2022-11-28T04:20:12.736Z,-2.58
2022-11-28T04:25:18.390Z,-2.56
2022-11-28T04:30:24.018Z,-2.55
2022-11-28T04:35:33.966Z,-2.50
2022-11-28T04:41:01.546Z,-2.43
2022-11-28T04:46:13.033Z,-2.32
2022-11-28T04:51:59.706Z,-2.27
2022-11-28T04:57:14.802Z,-2.16
2022-11-28T05:02:19.283Z,-2.11
2022-11-28T05:07:24.447Z,-1.99
2022-11-28T05:12:27.659Z,-1.86
2022-11-28T05:17:38.985Z,-1.81
2022-11-28T05:22:45.087Z,-1.58
2022-11-28T05:27:48.408Z,-1.47
2022-11-28T05:32:51.531Z,-1.38
2022-11-28T05:37:54.761Z,-1.33
2022-11-28T05:43:00.005Z,-1.23
2022-11-28T05:48:03.766Z,-1.25
2022-11-28T05:53:09.079Z,-1.14
2022-11-28T05:58:12.208Z,-1.06
2022-11-28T06:03:15.702Z,-0.90
2022-11-28T06:08:18.937Z,-0.79
2022-11-28T06:13:22.258Z,-0.62
2022-11-28T06:18:25.625Z,-0.57
2022-11-28T06:23:29.262Z,-0.50
2022-11-28T06:28:33.779Z,-0.43
2022-11-28T06:33:36.950Z,-0.26
2022-11-28T06:38:40.528Z,-0.38
2022-11-28T06:43:44.056Z,-0.44
2022-11-28T06:48:48.683Z,-0.45
2022-11-28T06:53:52.143Z,-0.22
2022-11-28T06:59:05.528Z,0.61
2022-11-28T07:11:19.919Z,4.00
2022-11-28T07:16:54.391Z,4.99
2022-11-28T07:22:09.197Z,4.50
2022-11-28T07:32:47.940Z,3.40
2022-11-28T07:38:28.494Z,3.19
2022-11-28T07:43:51.612Z,3.35
2022-11-28T07:49:15.592Z,3.09
2022-11-28T07:54:18.955Z,2.60
2022-11-28T08:00:03.584Z,1.93
2022-11-28T08:11:51.376Z,1.35
2022-11-28T08:17:06.836Z,1.13
2022-11-28T08:22:21.752Z,1.02
2022-11-28T08:27:58.090Z,0.78
2022-11-28T08:33:20.396Z,0.77
2022-11-28T08:38:29.365Z,0.92
2022-11-28T08:44:13.544Z,1.00
2022-11-28T08:49:25.808Z,1.40
2022-11-28T08:54:52.434Z,1.54
2022-11-28T09:00:03.185Z,1.54
2022-11-28T09:10:54.961Z,1.55
2022-11-28T09:16:07.889Z,1.46
2022-11-28T09:21:57.545Z,1.26
2022-11-28T09:27:22.273Z,1.48
2022-11-28T09:38:24.580Z,1.48
2022-11-28T09:44:21.372Z,1.48
2022-11-28T09:50:31.602Z,1.46
2022-11-28T09:56:14.135Z,1.48
2022-11-28T10:02:20.373Z,1.59
2022-11-28T10:07:53.618Z,1.50
2022-11-28T10:13:59.921Z,1.41
2022-11-28T10:19:12.509Z,1.40
2022-11-28T10:25:17.602Z,1.34
2022-11-28T10:30:30.386Z,1.10
2022-11-28T10:36:22.376Z,1.16
2022-11-28T10:42:24.102Z,1.27
2022-11-28T10:48:47.213Z,1.15
2022-11-28T10:54:21.272Z,1.06
2022-11-28T11:00:04.042Z,1.24
2022-11-28T11:06:02.331Z,1.17
2022-11-28T11:12:03.185Z,1.28
2022-11-28T11:17:42.120Z,1.22
2022-11-28T11:23:45.841Z,0.96
2022-11-28T11:29:24.269Z,0.92
2022-11-28T11:34:49.355Z,0.69
2022-11-28T11:46:06.755Z,0.74
2022-11-28T11:52:00.028Z,0.71
2022-11-28T11:57:51.924Z,0.48
2022-11-28T12:03:55.216Z,0.33
2022-11-28T12:09:21.752Z,0.27
2022-11-28T12:20:58.851Z,0.10
2022-11-28T12:26:41.281Z,-0.04
2022-11-28T12:32:36.362Z,-0.11
2022-11-28T12:38:13.333Z,-0.26
2022-11-28T12:49:43.936Z,-0.52
2022-11-28T12:55:51.807Z,-0.65
2022-11-28T13:01:11.287Z,-0.71
2022-11-28T13:06:48.939Z,-0.76
2022-11-28T13:12:25.785Z,-0.89
2022-11-28T13:17:47.538Z,-1.01
2022-11-28T13:23:29.792Z,-1.10
2022-11-28T13:28:44.648Z,-1.23
2022-11-28T13:33:55.466Z,-1.35
2022-11-28T13:39:16.599Z,-1.38
2022-11-28T13:44:35.240Z,-1.48
2022-11-28T13:49:39.224Z,-1.53
2022-11-28T13:54:52.949Z,-1.59
2022-11-28T14:00:22.914Z,-1.69
2022-11-28T14:05:33.892Z,-1.74
2022-11-28T14:10:57.060Z,-1.79
2022-11-28T14:16:05.213Z,-1.87
2022-11-28T14:21:45.394Z,-1.91
2022-11-28T14:27:00.208Z,-1.96
2022-11-28T14:37:37.509Z,-2.04
2022-11-28T14:48:17.968Z,-2.11
2022-11-28T14:53:41.796Z,-2.11
2022-11-28T14:58:49.686Z,-2.22
2022-11-28T15:04:04.824Z,-2.19
2022-11-28T15:09:20.997Z,-2.28
2022-11-28T15:14:27.584Z,-2.36
2022-11-28T15:19:37.712Z,-2.46
2022-11-28T15:24:41.039Z,-2.58
2022-11-28T15:30:00.750Z,-2.58
2022-11-28T15:35:12.463Z,-2.64
2022-11-28T15:40:37.780Z,-2.68
2022-11-28T15:45:42.996Z,-2.72
2022-11-28T15:50:51.456Z,-2.70
2022-11-28T16:01:39.651Z,-2.73
2022-11-28T16:06:46.642Z,-2.77
2022-11-28T16:11:52.979Z,-2.82
2022-11-28T16:17:01.500Z,-2.88
2022-11-28T16:22:12.416Z,-2.96
2022-11-28T16:27:41.948Z,-3.02
2022-11-28T16:32:45.120Z,-3.12
2022-11-28T16:37:48.387Z,-3.24
2022-11-28T16:42:53.989Z,-3.29
2022-11-28T16:48:16.195Z,-3.32
2022-11-28T16:53:41.788Z,-3.29
2022-11-28T16:58:47.852Z,-3.32
2022-11-28T17:03:52.821Z,-3.34
2022-11-28T17:08:56.771Z,-3.40
2022-11-28T17:14:02.556Z,-3.49
2022-11-28T17:19:06.389Z,-3.55
2022-11-28T17:24:18.007Z,-3.54
2022-11-28T17:29:22.075Z,-3.65
2022-11-28T17:34:31.010Z,-3.69
2022-11-28T17:39:34.529Z,-3.75
2022-11-28T17:44:39.312Z,-3.73
2022-11-28T17:49:46.281Z,-3.79
2022-11-28T17:54:49.800Z,-3.86
2022-11-28T17:59:53.955Z,-3.83
2022-11-28T18:04:57.711Z,-3.95
2022-11-28T18:10:00.923Z,-3.97
2022-11-28T18:15:07.119Z,-3.97
2022-11-28T18:20:13.312Z,-4.08
2022-11-28T18:25:16.991Z,-4.15
2022-11-28T18:30:20.413Z,-4.19
2022-11-28T18:35:24.070Z,-4.21
2022-11-28T18:40:27.534Z,-4.25
2022-11-28T18:45:34.792Z,-4.23
2022-11-28T18:50:38.914Z,-4.25
2022-11-28T18:55:42.562Z,-4.29
2022-11-28T19:00:46.138Z,-4.34
2022-11-28T19:05:49.368Z,-4.35
2022-11-28T19:10:52.813Z,-4.37
2022-11-28T19:15:56.150Z,-4.37
2022-11-28T19:20:59.422Z,-4.38
2022-11-28T19:26:04.841Z,-4.38
2022-11-28T19:31:23.459Z,-4.38
2022-11-28T19:36:27.112Z,-4.41
2022-11-28T19:41:31.222Z,-4.45
2022-11-28T19:46:36.049Z,-4.45
2022-11-28T19:51:40.230Z,-4.51
2022-11-28T19:56:43.823Z,-4.58
2022-11-28T20:01:50.104Z,-4.62
2022-11-28T20:06:53.521Z,-4.77
2022-11-28T20:11:56.662Z,-4.80
2022-11-28T20:17:01.321Z,-4.89
2022-11-28T20:22:04.532Z,-4.90
2022-11-28T20:27:08.991Z,-4.93
2022-11-28T20:32:12.348Z,-4.96
2022-11-28T20:37:15.510Z,-4.99
2022-11-28T20:42:18.624Z,-5.03
2022-11-28T20:47:21.792Z,-5.07
2022-11-28T20:52:25.438Z,-5.12
2022-11-28T20:57:28.610Z,-5.16
2022-11-28T21:02:31.863Z,-5.27
2022-11-28T21:07:35.069Z,-5.28
2022-11-28T21:12:41.047Z,-5.28
2022-11-28T21:17:44.706Z,-5.34
2022-11-28T21:22:48.068Z,-5.42
2022-11-28T21:27:51.286Z,-5.52
2022-11-28T21:32:54.392Z,-5.59
2022-11-28T21:37:58.885Z,-5.60
2022-11-28T21:43:02.817Z,-5.70
2022-11-28T21:48:06.168Z,-5.72
2022-11-28T21:53:09.431Z,-5.80
2022-11-28T21:58:13.554Z,-5.86
2022-11-28T22:03:16.884Z,-5.93
2022-11-28T22:08:24.441Z,-5.94
2022-11-28T22:13:28.661Z,-6.01
2022-11-28T22:18:31.871Z,-6.04
2022-11-28T22:23:37.230Z,-6.14
2022-11-28T22:28:41.865Z,-6.16
2022-11-28T22:33:45.860Z,-6.20
2022-11-28T22:38:53.860Z,-6.24
2022-11-28T22:44:00.720Z,-6.32
2022-11-28T22:49:05.379Z,-6.38
2022-11-28T22:54:12.784Z,-6.38
2022-11-28T22:59:19.135Z,-6.42
2022-11-28T23:04:27.381Z,-6.42
2022-11-28T23:09:30.993Z,-6.49
2022-11-28T23:14:34.156Z,-6.51
2022-11-28T23:19:45.980Z,-6.52
2022-11-28T23:24:49.112Z,-6.57
2022-11-28T23:29:52.394Z,-6.63
2022-11-28T23:34:56.396Z,-6.71
2022-11-28T23:40:00.148Z,-6.85
2022-11-28T23:45:04.141Z,-6.83
2022-11-28T23:50:07.996Z,-6.87
2022-11-28T23:55:12.018Z,-6.90
